sensor_id;sensor_type;location;lat;lon;timestamp;temperature;humidity
67364;HTU21D;54250;45.572;38.086;2023-01-28T00:01:13;-2.71;84.77
67364;HTU21D;54250;45.572;38.086;2023-01-28T00:03:40;-2.69;84.88
67364;HTU21D;54250;45.572;38.086;2023-01-28T00:06:12;-2.62;84.77
67364;HTU21D;54250;45.572;38.086;2023-01-28T00:08:39;-2.61;84.74
67364;HTU21D;54250;45.572;38.086;2023-01-28T00:11:09;-2.58;84.71
67364;HTU21D;54250;45.572;38.086;2023-01-28T00:13:35;-2.54;84.78
67364;HTU21D;54250;45.572;38.086;2023-01-28T00:16:04;-2.50;84.72
67364;HTU21D;54250;45.572;38.086;2023-01-28T00:18:31;-2.49;84.64
67364;HTU21D;54250;45.572;38.086;2023-01-28T00:21:09;-2.46;84.53
67364;HTU21D;54250;45.572;38.086;2023-01-28T00:23:36;-2.44;84.60
67364;HTU21D;54250;45.572;38.086;2023-01-28T00:26:06;-2.45;84.61
67364;HTU21D;54250;45.572;38.086;2023-01-28T00:28:32;-2.43;84.78
67364;HTU21D;54250;45.572;38.086;2023-01-28T00:31:05;-2.41;84.64
67364;HTU21D;54250;45.572;38.086;2023-01-28T00:33:32;-2.39;84.69
67364;HTU21D;54250;45.572;38.086;2023-01-28T00:35:59;-2.38;84.55
67364;HTU21D;54250;45.572;38.086;2023-01-28T00:38:26;-2.37;84.58
67364;HTU21D;54250;45.572;38.086;2023-01-28T00:40:53;-2.37;84.55
67364;HTU21D;54250;45.572;38.086;2023-01-28T00:43:19;-2.36;84.56
67364;HTU21D;54250;45.572;38.086;2023-01-28T00:45:45;-2.38;84.61
67364;HTU21D;54250;45.572;38.086;2023-01-28T00:48:11;-2.36;84.55
67364;HTU21D;54250;45.572;38.086;2023-01-28T00:50:38;-2.41;84.63
67364;HTU21D;54250;45.572;38.086;2023-01-28T00:53:05;-2.38;84.56
67364;HTU21D;54250;45.572;38.086;2023-01-28T00:55:31;-2.38;84.54
67364;HTU21D;54250;45.572;38.086;2023-01-28T00:57:57;-2.41;84.53
67364;HTU21D;54250;45.572;38.086;2023-01-28T01:00:23;-2.41;84.55
67364;HTU21D;54250;45.572;38.086;2023-01-28T01:02:52;-2.39;84.55
67364;HTU21D;54250;45.572;38.086;2023-01-28T01:05:18;-2.41;84.47
67364;HTU21D;54250;45.572;38.086;2023-01-28T01:07:44;-2.38;84.49
67364;HTU21D;54250;45.572;38.086;2023-01-28T01:10:12;-2.38;84.47
67364;HTU21D;54250;45.572;38.086;2023-01-28T01:12:38;-2.36;84.44
67364;HTU21D;54250;45.572;38.086;2023-01-28T01:15:06;-2.35;84.45
67364;HTU21D;54250;45.572;38.086;2023-01-28T01:17:36;-2.34;84.48
67364;HTU21D;54250;45.572;38.086;2023-01-28T01:20:07;-2.34;84.45
67364;HTU21D;54250;45.572;38.086;2023-01-28T01:22:35;-2.33;84.38
67364;HTU21D;54250;45.572;38.086;2023-01-28T01:25:03;-2.34;84.46
67364;HTU21D;54250;45.572;38.086;2023-01-28T01:27:30;-2.34;84.52
67364;HTU21D;54250;45.572;38.086;2023-01-28T01:29:57;-2.35;84.55
67364;HTU21D;54250;45.572;38.086;2023-01-28T01:32:29;-2.35;84.58
67364;HTU21D;54250;45.572;38.086;2023-01-28T01:34:55;-2.35;84.65
67364;HTU21D;54250;45.572;38.086;2023-01-28T01:37:24;-2.35;84.65
67364;HTU21D;54250;45.572;38.086;2023-01-28T01:39:49;-2.36;84.71
67364;HTU21D;54250;45.572;38.086;2023-01-28T01:42:15;-2.36;84.80
67364;HTU21D;54250;45.572;38.086;2023-01-28T01:45:17;-2.39;84.74
67364;HTU21D;54250;45.572;38.086;2023-01-28T01:48:02;-2.37;84.72
67364;HTU21D;54250;45.572;38.086;2023-01-28T01:50:35;-2.35;84.83
67364;HTU21D;54250;45.572;38.086;2023-01-28T01:53:09;-2.33;84.77
67364;HTU21D;54250;45.572;38.086;2023-01-28T01:55:38;-2.32;84.74
67364;HTU21D;54250;45.572;38.086;2023-01-28T01:58:10;-2.31;84.78
67364;HTU21D;54250;45.572;38.086;2023-01-28T02:00:37;-2.30;84.79
67364;HTU21D;54250;45.572;38.086;2023-01-28T02:03:04;-2.29;84.81
67364;HTU21D;54250;45.572;38.086;2023-01-28T02:05:30;-2.28;84.75
67364;HTU21D;54250;45.572;38.086;2023-01-28T02:07:57;-2.26;84.65
67364;HTU21D;54250;45.572;38.086;2023-01-28T02:10:55;-2.26;84.62
67364;HTU21D;54250;45.572;38.086;2023-01-28T02:13:27;-2.27;84.64
67364;HTU21D;54250;45.572;38.086;2023-01-28T02:15:56;-2.26;84.63
67364;HTU21D;54250;45.572;38.086;2023-01-28T02:18:23;-2.23;84.62
67364;HTU21D;54250;45.572;38.086;2023-01-28T02:26:49;-2.22;84.48
67364;HTU21D;54250;45.572;38.086;2023-01-28T02:29:42;-2.23;84.57
67364;HTU21D;54250;45.572;38.086;2023-01-28T02:32:16;-2.20;84.60
67364;HTU21D;54250;45.572;38.086;2023-01-28T02:35:00;-2.21;84.64
67364;HTU21D;54250;45.572;38.086;2023-01-28T02:37:45;-2.20;84.65
67364;HTU21D;54250;45.572;38.086;2023-01-28T02:40:16;-2.20;84.70
67364;HTU21D;54250;45.572;38.086;2023-01-28T02:42:44;-2.19;84.74
67364;HTU21D;54250;45.572;38.086;2023-01-28T02:45:21;-2.17;84.61
67364;HTU21D;54250;45.572;38.086;2023-01-28T02:47:48;-2.16;84.71
67364;HTU21D;54250;45.572;38.086;2023-01-28T02:50:30;-2.14;84.61
67364;HTU21D;54250;45.572;38.086;2023-01-28T02:53:26;-2.14;84.44
67364;HTU21D;54250;45.572;38.086;2023-01-28T02:56:25;-2.12;84.58
67364;HTU21D;54250;45.572;38.086;2023-01-28T03:07:11;-2.08;84.57
67364;HTU21D;54250;45.572;38.086;2023-01-28T03:09:41;-2.04;84.52
67364;HTU21D;54250;45.572;38.086;2023-01-28T03:12:13;-2.03;84.51
67364;HTU21D;54250;45.572;38.086;2023-01-28T03:15:03;-2.01;84.52
67364;HTU21D;54250;45.572;38.086;2023-01-28T03:21:12;-2.01;84.54
67364;HTU21D;54250;45.572;38.086;2023-01-28T03:24:04;-2.00;84.51
67364;HTU21D;54250;45.572;38.086;2023-01-28T03:29:43;-1.97;84.54
67364;HTU21D;54250;45.572;38.086;2023-01-28T03:32:30;-1.95;84.50
67364;HTU21D;54250;45.572;38.086;2023-01-28T03:35:17;-1.95;84.48
67364;HTU21D;54250;45.572;38.086;2023-01-28T03:38:04;-1.94;84.46
67364;HTU21D;54250;45.572;38.086;2023-01-28T03:40:55;-1.93;84.38
67364;HTU21D;54250;45.572;38.086;2023-01-28T03:43:23;-1.91;84.35
67364;HTU21D;54250;45.572;38.086;2023-01-28T03:45:49;-1.92;84.34
67364;HTU21D;54250;45.572;38.086;2023-01-28T03:48:23;-1.90;84.29
67364;HTU21D;54250;45.572;38.086;2023-01-28T03:50:49;-1.91;84.33
67364;HTU21D;54250;45.572;38.086;2023-01-28T03:53:16;-1.86;84.24
67364;HTU21D;54250;45.572;38.086;2023-01-28T03:55:52;-1.86;84.14
67364;HTU21D;54250;45.572;38.086;2023-01-28T03:58:20;-1.86;84.15
67364;HTU21D;54250;45.572;38.086;2023-01-28T04:00:47;-1.86;84.19
67364;HTU21D;54250;45.572;38.086;2023-01-28T04:03:17;-1.85;84.13
67364;HTU21D;54250;45.572;38.086;2023-01-28T04:05:57;-1.85;84.13
67364;HTU21D;54250;45.572;38.086;2023-01-28T04:08:26;-1.86;84.13
67364;HTU21D;54250;45.572;38.086;2023-01-28T04:11:19;-1.85;84.20
67364;HTU21D;54250;45.572;38.086;2023-01-28T04:13:47;-1.84;84.23
67364;HTU21D;54250;45.572;38.086;2023-01-28T04:16:17;-1.83;84.17
67364;HTU21D;54250;45.572;38.086;2023-01-28T04:18:45;-1.83;84.19
67364;HTU21D;54250;45.572;38.086;2023-01-28T04:21:12;-1.80;84.16
67364;HTU21D;54250;45.572;38.086;2023-01-28T04:23:38;-1.78;84.07
67364;HTU21D;54250;45.572;38.086;2023-01-28T04:26:06;-1.76;84.04
67364;HTU21D;54250;45.572;38.086;2023-01-28T04:28:33;-1.74;83.99
67364;HTU21D;54250;45.572;38.086;2023-01-28T04:30:59;-1.73;83.96
67364;HTU21D;54250;45.572;38.086;2023-01-28T04:33:40;-1.76;84.07
67364;HTU21D;54250;45.572;38.086;2023-01-28T04:36:29;-1.73;84.06
67364;HTU21D;54250;45.572;38.086;2023-01-28T04:39:18;-1.74;84.05
67364;HTU21D;54250;45.572;38.086;2023-01-28T04:41:58;-1.75;84.08
67364;HTU21D;54250;45.572;38.086;2023-01-28T04:44:41;-1.74;84.04
67364;HTU21D;54250;45.572;38.086;2023-01-28T04:47:27;-1.75;84.13
67364;HTU21D;54250;45.572;38.086;2023-01-28T04:50:14;-1.74;84.11
67364;HTU21D;54250;45.572;38.086;2023-01-28T04:53:12;-1.76;84.16
67364;HTU21D;54250;45.572;38.086;2023-01-28T04:55:50;-1.77;84.17
67364;HTU21D;54250;45.572;38.086;2023-01-28T04:58:16;-1.76;84.19
67364;HTU21D;54250;45.572;38.086;2023-01-28T05:00:44;-1.76;84.16
67364;HTU21D;54250;45.572;38.086;2023-01-28T05:03:10;-1.75;84.12
67364;HTU21D;54250;45.572;38.086;2023-01-28T05:05:36;-1.75;84.13
67364;HTU21D;54250;45.572;38.086;2023-01-28T05:08:17;-1.74;84.19
67364;HTU21D;54250;45.572;38.086;2023-01-28T05:10:45;-1.75;84.24
67364;HTU21D;54250;45.572;38.086;2023-01-28T05:13:11;-1.74;84.23
67364;HTU21D;54250;45.572;38.086;2023-01-28T05:15:37;-1.73;84.27
67364;HTU21D;54250;45.572;38.086;2023-01-28T05:18:03;-1.71;84.23
67364;HTU21D;54250;45.572;38.086;2023-01-28T05:20:36;-1.71;84.29
67364;HTU21D;54250;45.572;38.086;2023-01-28T05:23:03;-1.69;84.29
67364;HTU21D;54250;45.572;38.086;2023-01-28T05:25:49;-1.67;84.35
67364;HTU21D;54250;45.572;38.086;2023-01-28T05:28:15;-1.64;84.32
67364;HTU21D;54250;45.572;38.086;2023-01-28T05:30:41;-1.61;84.32
67364;HTU21D;54250;45.572;38.086;2023-01-28T05:33:07;-1.57;84.23
67364;HTU21D;54250;45.572;38.086;2023-01-28T05:35:33;-1.53;84.19
67364;HTU21D;54250;45.572;38.086;2023-01-28T05:38:01;-1.46;84.12
67364;HTU21D;54250;45.572;38.086;2023-01-28T05:40:27;-1.44;84.09
67364;HTU21D;54250;45.572;38.086;2023-01-28T05:42:53;-1.40;84.13
67364;HTU21D;54250;45.572;38.086;2023-01-28T05:45:46;-1.36;84.13
67364;HTU21D;54250;45.572;38.086;2023-01-28T05:48:38;-1.33;84.07
67364;HTU21D;54250;45.572;38.086;2023-01-28T05:51:43;-1.28;84.07
67364;HTU21D;54250;45.572;38.086;2023-01-28T05:54:13;-1.26;84.02
67364;HTU21D;54250;45.572;38.086;2023-01-28T05:56:39;-1.18;84.03
67364;HTU21D;54250;45.572;38.086;2023-01-28T05:59:06;-1.12;83.90
67364;HTU21D;54250;45.572;38.086;2023-01-28T06:01:33;-1.02;83.78
67364;HTU21D;54250;45.572;38.086;2023-01-28T06:03:59;-0.95;83.65
67364;HTU21D;54250;45.572;38.086;2023-01-28T06:06:28;-0.87;83.61
67364;HTU21D;54250;45.572;38.086;2023-01-28T06:08:54;-0.77;83.45
67364;HTU21D;54250;45.572;38.086;2023-01-28T06:11:25;-0.61;83.18
67364;HTU21D;54250;45.572;38.086;2023-01-28T06:13:54;-0.50;82.93
67364;HTU21D;54250;45.572;38.086;2023-01-28T06:16:38;-0.27;82.57
67364;HTU21D;54250;45.572;38.086;2023-01-28T06:19:19;-0.10;82.16
67364;HTU21D;54250;45.572;38.086;2023-01-28T06:21:45;-0.01;81.94
67364;HTU21D;54250;45.572;38.086;2023-01-28T06:24:11;0.27;81.63
67364;HTU21D;54250;45.572;38.086;2023-01-28T06:26:38;0.61;80.81
67364;HTU21D;54250;45.572;38.086;2023-01-28T06:29:05;0.79;80.15
67364;HTU21D;54250;45.572;38.086;2023-01-28T06:31:31;0.95;80.05
67364;HTU21D;54250;45.572;38.086;2023-01-28T06:33:57;1.05;79.51
67364;HTU21D;54250;45.572;38.086;2023-01-28T06:36:23;1.21;79.14
67364;HTU21D;54250;45.572;38.086;2023-01-28T06:38:49;1.51;78.88
67364;HTU21D;54250;45.572;38.086;2023-01-28T06:41:15;1.66;78.29
67364;HTU21D;54250;45.572;38.086;2023-01-28T06:43:41;1.95;77.68
67364;HTU21D;54250;45.572;38.086;2023-01-28T06:46:07;2.40;76.98
67364;HTU21D;54250;45.572;38.086;2023-01-28T06:48:33;2.80;76.28
67364;HTU21D;54250;45.572;38.086;2023-01-28T06:50:59;3.08;75.13
67364;HTU21D;54250;45.572;38.086;2023-01-28T06:53:25;3.39;74.83
67364;HTU21D;54250;45.572;38.086;2023-01-28T06:55:51;3.94;74.45
67364;HTU21D;54250;45.572;38.086;2023-01-28T06:58:17;4.17;72.80
67364;HTU21D;54250;45.572;38.086;2023-01-28T07:00:43;4.24;73.11
67364;HTU21D;54250;45.572;38.086;2023-01-28T07:03:09;4.80;72.04
67364;HTU21D;54250;45.572;38.086;2023-01-28T07:05:36;5.18;71.32
67364;HTU21D;54250;45.572;38.086;2023-01-28T07:08:02;5.65;70.26
67364;HTU21D;54250;45.572;38.086;2023-01-28T07:10:28;6.10;69.30
67364;HTU21D;54250;45.572;38.086;2023-01-28T07:12:54;6.52;68.72
67364;HTU21D;54250;45.572;38.086;2023-01-28T07:15:20;6.84;67.81
67364;HTU21D;54250;45.572;38.086;2023-01-28T07:17:46;7.15;67.19
67364;HTU21D;54250;45.572;38.086;2023-01-28T07:20:13;7.59;66.60
67364;HTU21D;54250;45.572;38.086;2023-01-28T07:22:40;7.50;65.66
67364;HTU21D;54250;45.572;38.086;2023-01-28T07:25:07;7.72;64.60
67364;HTU21D;54250;45.572;38.086;2023-01-28T07:27:34;7.69;63.79
67364;HTU21D;54250;45.572;38.086;2023-01-28T07:30:00;7.62;63.44
67364;HTU21D;54250;45.572;38.086;2023-01-28T07:32:27;7.52;63.04
67364;HTU21D;54250;45.572;38.086;2023-01-28T07:34:53;7.93;62.79
67364;HTU21D;54250;45.572;38.086;2023-01-28T07:37:19;8.47;62.04
67364;HTU21D;54250;45.572;38.086;2023-01-28T07:39:46;8.43;60.72
67364;HTU21D;54250;45.572;38.086;2023-01-28T07:42:12;8.58;60.57
67364;HTU21D;54250;45.572;38.086;2023-01-28T07:44:45;8.77;60.25
67364;HTU21D;54250;45.572;38.086;2023-01-28T07:47:11;8.67;59.93
67364;HTU21D;54250;45.572;38.086;2023-01-28T07:49:37;8.85;60.17
67364;HTU21D;54250;45.572;38.086;2023-01-28T07:52:07;8.88;59.04
67364;HTU21D;54250;45.572;38.086;2023-01-28T07:54:33;8.46;59.78
67364;HTU21D;54250;45.572;38.086;2023-01-28T07:56:59;8.47;60.12
67364;HTU21D;54250;45.572;38.086;2023-01-28T07:59:25;8.58;60.41
67364;HTU21D;54250;45.572;38.086;2023-01-28T08:01:51;8.50;60.51
67364;HTU21D;54250;45.572;38.086;2023-01-28T08:04:19;7.97;60.10
67364;HTU21D;54250;45.572;38.086;2023-01-28T08:06:45;7.34;61.66
67364;HTU21D;54250;45.572;38.086;2023-01-28T08:09:11;6.79;61.89
67364;HTU21D;54250;45.572;38.086;2023-01-28T08:11:38;6.15;63.31
67364;HTU21D;54250;45.572;38.086;2023-01-28T08:14:04;5.67;64.08
67364;HTU21D;54250;45.572;38.086;2023-01-28T08:16:30;5.34;64.66
67364;HTU21D;54250;45.572;38.086;2023-01-28T08:18:56;5.09;65.02
67364;HTU21D;54250;45.572;38.086;2023-01-28T08:21:22;4.98;65.30
67364;HTU21D;54250;45.572;38.086;2023-01-28T08:23:48;4.84;65.37
67364;HTU21D;54250;45.572;38.086;2023-01-28T08:26:15;5.01;65.72
67364;HTU21D;54250;45.572;38.086;2023-01-28T08:28:40;5.40;65.21
67364;HTU21D;54250;45.572;38.086;2023-01-28T08:31:06;5.90;64.07
67364;HTU21D;54250;45.572;38.086;2023-01-28T08:33:33;6.13;63.83
67364;HTU21D;54250;45.572;38.086;2023-01-28T08:36:01;6.17;63.59
67364;HTU21D;54250;45.572;38.086;2023-01-28T08:38:27;6.12;63.85
67364;HTU21D;54250;45.572;38.086;2023-01-28T08:40:55;6.00;64.11
67364;HTU21D;54250;45.572;38.086;2023-01-28T08:43:22;5.70;64.21
67364;HTU21D;54250;45.572;38.086;2023-01-28T08:45:48;5.34;65.16
67364;HTU21D;54250;45.572;38.086;2023-01-28T08:48:16;5.35;65.41
67364;HTU21D;54250;45.572;38.086;2023-01-28T08:50:43;5.38;65.50
67364;HTU21D;54250;45.572;38.086;2023-01-28T08:53:18;5.26;65.56
67364;HTU21D;54250;45.572;38.086;2023-01-28T08:55:45;5.28;65.98
67364;HTU21D;54250;45.572;38.086;2023-01-28T08:58:14;5.35;65.62
67364;HTU21D;54250;45.572;38.086;2023-01-28T09:00:41;5.23;65.38
67364;HTU21D;54250;45.572;38.086;2023-01-28T09:03:07;5.15;65.86
67364;HTU21D;54250;45.572;38.086;2023-01-28T09:05:34;4.84;65.68
67364;HTU21D;54250;45.572;38.086;2023-01-28T09:08:07;4.66;66.41
67364;HTU21D;54250;45.572;38.086;2023-01-28T09:10:35;4.53;66.62
67364;HTU21D;54250;45.572;38.086;2023-01-28T09:13:10;4.37;66.93
67364;HTU21D;54250;45.572;38.086;2023-01-28T09:15:38;4.18;67.34
67364;HTU21D;54250;45.572;38.086;2023-01-28T09:18:05;4.20;67.62
67364;HTU21D;54250;45.572;38.086;2023-01-28T09:20:32;4.19;67.72
67364;HTU21D;54250;45.572;38.086;2023-01-28T09:22:59;4.16;67.90
67364;HTU21D;54250;45.572;38.086;2023-01-28T09:25:25;4.15;68.04
67364;HTU21D;54250;45.572;38.086;2023-01-28T09:27:51;4.12;68.22
67364;HTU21D;54250;45.572;38.086;2023-01-28T09:30:17;4.07;68.26
67364;HTU21D;54250;45.572;38.086;2023-01-28T09:32:43;4.07;68.30
67364;HTU21D;54250;45.572;38.086;2023-01-28T09:35:09;4.07;68.49
67364;HTU21D;54250;45.572;38.086;2023-01-28T09:37:36;4.09;68.55
67364;HTU21D;54250;45.572;38.086;2023-01-28T09:40:03;4.09;68.61
67364;HTU21D;54250;45.572;38.086;2023-01-28T09:42:55;4.08;68.75
67364;HTU21D;54250;45.572;38.086;2023-01-28T09:45:32;4.10;68.98
67364;HTU21D;54250;45.572;38.086;2023-01-28T09:48:02;4.08;68.97
67364;HTU21D;54250;45.572;38.086;2023-01-28T09:50:33;4.15;69.06
67364;HTU21D;54250;45.572;38.086;2023-01-28T09:53:22;4.16;68.97
67364;HTU21D;54250;45.572;38.086;2023-01-28T09:56:03;4.12;68.75
67364;HTU21D;54250;45.572;38.086;2023-01-28T09:58:30;4.04;68.78
67364;HTU21D;54250;45.572;38.086;2023-01-28T10:01:29;4.00;68.86
67364;HTU21D;54250;45.572;38.086;2023-01-28T10:06:52;3.95;68.97
67364;HTU21D;54250;45.572;38.086;2023-01-28T10:09:49;4.01;69.02
67364;HTU21D;54250;45.572;38.086;2023-01-28T10:15:39;3.97;69.04
67364;HTU21D;54250;45.572;38.086;2023-01-28T10:18:08;3.90;69.07
67364;HTU21D;54250;45.572;38.086;2023-01-28T10:21:10;3.87;69.14
67364;HTU21D;54250;45.572;38.086;2023-01-28T10:23:45;3.87;69.32
67364;HTU21D;54250;45.572;38.086;2023-01-28T10:26:23;3.98;69.38
67364;HTU21D;54250;45.572;38.086;2023-01-28T10:28:55;4.03;69.20
67364;HTU21D;54250;45.572;38.086;2023-01-28T10:31:22;4.09;69.33
67364;HTU21D;54250;45.572;38.086;2023-01-28T10:33:52;4.14;69.29
67364;HTU21D;54250;45.572;38.086;2023-01-28T10:36:18;4.20;69.18
67364;HTU21D;54250;45.572;38.086;2023-01-28T10:38:44;4.24;69.16
67364;HTU21D;54250;45.572;38.086;2023-01-28T10:41:12;4.31;69.24
67364;HTU21D;54250;45.572;38.086;2023-01-28T10:43:41;4.39;69.16
67364;HTU21D;54250;45.572;38.086;2023-01-28T10:46:21;4.46;69.05
67364;HTU21D;54250;45.572;38.086;2023-01-28T10:49:10;4.56;69.04
67364;HTU21D;54250;45.572;38.086;2023-01-28T10:51:40;4.61;68.76
67364;HTU21D;54250;45.572;38.086;2023-01-28T10:54:24;4.61;68.55
67364;HTU21D;54250;45.572;38.086;2023-01-28T10:57:11;4.58;68.38
67364;HTU21D;54250;45.572;38.086;2023-01-28T10:59:38;4.58;68.49
67364;HTU21D;54250;45.572;38.086;2023-01-28T11:02:32;4.63;68.58
67364;HTU21D;54250;45.572;38.086;2023-01-28T11:05:27;4.71;68.58
67364;HTU21D;54250;45.572;38.086;2023-01-28T11:08:14;4.80;68.55
67364;HTU21D;54250;45.572;38.086;2023-01-28T11:10:41;4.82;68.36
67364;HTU21D;54250;45.572;38.086;2023-01-28T11:13:28;4.82;68.32
67364;HTU21D;54250;45.572;38.086;2023-01-28T11:16:02;4.83;68.35
67364;HTU21D;54250;45.572;38.086;2023-01-28T11:18:40;4.84;68.35
67364;HTU21D;54250;45.572;38.086;2023-01-28T11:21:21;4.78;68.12
67364;HTU21D;54250;45.572;38.086;2023-01-28T11:23:52;4.72;68.31
67364;HTU21D;54250;45.572;38.086;2023-01-28T11:26:24;4.60;68.56
67364;HTU21D;54250;45.572;38.086;2023-01-28T11:28:52;4.50;68.90
67364;HTU21D;54250;45.572;38.086;2023-01-28T11:31:21;4.48;69.08
67364;HTU21D;54250;45.572;38.086;2023-01-28T11:33:54;4.48;69.09
67364;HTU21D;54250;45.572;38.086;2023-01-28T11:36:26;4.48;69.10
67364;HTU21D;54250;45.572;38.086;2023-01-28T11:38:53;4.44;69.23
67364;HTU21D;54250;45.572;38.086;2023-01-28T11:41:27;4.39;69.23
67364;HTU21D;54250;45.572;38.086;2023-01-28T11:43:53;4.34;69.42
67364;HTU21D;54250;45.572;38.086;2023-01-28T11:51:51;4.41;69.56
67364;HTU21D;54250;45.572;38.086;2023-01-28T11:54:28;4.34;69.90
67364;HTU21D;54250;45.572;38.086;2023-01-28T11:57:22;4.01;71.32
67364;HTU21D;54250;45.572;38.086;2023-01-28T12:07:59;3.14;76.96
67364;HTU21D;54250;45.572;38.086;2023-01-28T12:10:43;3.03;77.59
67364;HTU21D;54250;45.572;38.086;2023-01-28T12:25:11;3.13;79.72
67364;HTU21D;54250;45.572;38.086;2023-01-28T12:28:06;3.16;79.72
67364;HTU21D;54250;45.572;38.086;2023-01-28T12:36:37;3.13;81.17
67364;HTU21D;54250;45.572;38.086;2023-01-28T12:41:42;2.91;82.78
67364;HTU21D;54250;45.572;38.086;2023-01-28T12:44:32;2.93;82.61
67364;HTU21D;54250;45.572;38.086;2023-01-28T12:47:04;2.90;83.00
67364;HTU21D;54250;45.572;38.086;2023-01-28T12:52:08;2.81;83.56
67364;HTU21D;54250;45.572;38.086;2023-01-28T12:54:35;2.82;83.58
67364;HTU21D;54250;45.572;38.086;2023-01-28T12:57:04;2.85;83.61
67364;HTU21D;54250;45.572;38.086;2023-01-28T12:59:38;2.87;83.48
67364;HTU21D;54250;45.572;38.086;2023-01-28T13:10:39;2.98;83.53
67364;HTU21D;54250;45.572;38.086;2023-01-28T13:13:05;2.98;83.61
67364;HTU21D;54250;45.572;38.086;2023-01-28T13:15:34;3.01;83.58
67364;HTU21D;54250;45.572;38.086;2023-01-28T13:18:03;3.01;83.86
67364;HTU21D;54250;45.572;38.086;2023-01-28T13:20:50;2.99;84.00
67364;HTU21D;54250;45.572;38.086;2023-01-28T13:23:23;2.97;84.31
67364;HTU21D;54250;45.572;38.086;2023-01-28T13:25:54;2.98;84.26
67364;HTU21D;54250;45.572;38.086;2023-01-28T13:28:31;2.97;84.32
67364;HTU21D;54250;45.572;38.086;2023-01-28T13:31:03;2.96;84.49
67364;HTU21D;54250;45.572;38.086;2023-01-28T13:33:32;2.95;84.62
67364;HTU21D;54250;45.572;38.086;2023-01-28T13:38:44;2.89;85.09
67364;HTU21D;54250;45.572;38.086;2023-01-28T13:41:10;2.88;85.01
67364;HTU21D;54250;45.572;38.086;2023-01-28T13:43:39;2.90;84.87
67364;HTU21D;54250;45.572;38.086;2023-01-28T13:46:10;2.91;85.03
67364;HTU21D;54250;45.572;38.086;2023-01-28T13:48:49;2.93;84.93
67364;HTU21D;54250;45.572;38.086;2023-01-28T13:51:29;2.96;85.03
67364;HTU21D;54250;45.572;38.086;2023-01-28T13:54:20;2.97;85.40
67364;HTU21D;54250;45.572;38.086;2023-01-28T14:10:42;2.97;85.72
67364;HTU21D;54250;45.572;38.086;2023-01-28T14:18:41;3.01;85.70
67364;HTU21D;54250;45.572;38.086;2023-01-28T14:21:14;3.03;85.84
67364;HTU21D;54250;45.572;38.086;2023-01-28T14:23:46;3.05;85.80
67364;HTU21D;54250;45.572;38.086;2023-01-28T14:32:10;3.10;85.67
67364;HTU21D;54250;45.572;38.086;2023-01-28T14:34:37;3.15;85.60
67364;HTU21D;54250;45.572;38.086;2023-01-28T14:37:06;3.18;85.42
67364;HTU21D;54250;45.572;38.086;2023-01-28T14:39:42;3.23;85.25
67364;HTU21D;54250;45.572;38.086;2023-01-28T14:42:24;3.24;85.00
67364;HTU21D;54250;45.572;38.086;2023-01-28T14:44:59;3.27;84.95
67364;HTU21D;54250;45.572;38.086;2023-01-28T14:47:34;3.30;84.94
67364;HTU21D;54250;45.572;38.086;2023-01-28T14:55:44;3.42;84.58
67364;HTU21D;54250;45.572;38.086;2023-01-28T14:58:15;3.39;84.61
67364;HTU21D;54250;45.572;38.086;2023-01-28T15:00:52;3.43;84.64
67364;HTU21D;54250;45.572;38.086;2023-01-28T15:03:19;3.46;84.71
67364;HTU21D;54250;45.572;38.086;2023-01-28T15:05:45;3.52;84.61
67364;HTU21D;54250;45.572;38.086;2023-01-28T15:08:23;3.56;84.42
67364;HTU21D;54250;45.572;38.086;2023-01-28T15:10:51;3.60;84.25
67364;HTU21D;54250;45.572;38.086;2023-01-28T15:13:25;3.61;84.08
67364;HTU21D;54250;45.572;38.086;2023-01-28T15:15:53;3.62;84.07
67364;HTU21D;54250;45.572;38.086;2023-01-28T15:18:40;3.64;84.05
67364;HTU21D;54250;45.572;38.086;2023-01-28T15:21:07;3.65;84.10
67364;HTU21D;54250;45.572;38.086;2023-01-28T15:23:35;3.68;84.10
67364;HTU21D;54250;45.572;38.086;2023-01-28T15:26:27;3.70;83.92
67364;HTU21D;54250;45.572;38.086;2023-01-28T15:28:53;3.68;84.03
67364;HTU21D;54250;45.572;38.086;2023-01-28T15:31:24;3.62;84.23
67364;HTU21D;54250;45.572;38.086;2023-01-28T15:34:00;3.54;84.53
67364;HTU21D;54250;45.572;38.086;2023-01-28T15:36:27;3.43;84.87
67364;HTU21D;54250;45.572;38.086;2023-01-28T15:38:55;3.34;85.77
67364;HTU21D;54250;45.572;38.086;2023-01-28T15:41:35;3.29;85.68
67364;HTU21D;54250;45.572;38.086;2023-01-28T15:44:03;3.23;85.86
67364;HTU21D;54250;45.572;38.086;2023-01-28T15:46:30;3.20;85.90
67364;HTU21D;54250;45.572;38.086;2023-01-28T15:49:03;3.16;85.90
67364;HTU21D;54250;45.572;38.086;2023-01-28T15:51:30;3.16;85.77
67364;HTU21D;54250;45.572;38.086;2023-01-28T15:54:03;3.14;85.89
67364;HTU21D;54250;45.572;38.086;2023-01-28T15:56:31;3.14;85.97
67364;HTU21D;54250;45.572;38.086;2023-01-28T16:01:40;3.17;86.16
67364;HTU21D;54250;45.572;38.086;2023-01-28T16:04:24;3.19;86.51
67364;HTU21D;54250;45.572;38.086;2023-01-28T16:06:51;3.21;86.85
67364;HTU21D;54250;45.572;38.086;2023-01-28T16:09:31;3.23;86.74
67364;HTU21D;54250;45.572;38.086;2023-01-28T16:12:06;3.24;86.87
67364;HTU21D;54250;45.572;38.086;2023-01-28T16:14:43;3.26;86.96
67364;HTU21D;54250;45.572;38.086;2023-01-28T16:17:18;3.28;87.02
67364;HTU21D;54250;45.572;38.086;2023-01-28T16:19:50;3.31;87.03
67364;HTU21D;54250;45.572;38.086;2023-01-28T16:22:42;3.34;86.99
67364;HTU21D;54250;45.572;38.086;2023-01-28T16:27:46;3.42;87.09
67364;HTU21D;54250;45.572;38.086;2023-01-28T16:30:13;3.43;87.09
67364;HTU21D;54250;45.572;38.086;2023-01-28T16:32:39;3.47;86.99
67364;HTU21D;54250;45.572;38.086;2023-01-28T16:35:14;3.49;87.26
67364;HTU21D;54250;45.572;38.086;2023-01-28T16:37:40;3.50;86.98
67364;HTU21D;54250;45.572;38.086;2023-01-28T16:40:08;3.53;86.90
67364;HTU21D;54250;45.572;38.086;2023-01-28T16:42:37;3.53;86.96
67364;HTU21D;54250;45.572;38.086;2023-01-28T16:45:04;3.53;87.08
67364;HTU21D;54250;45.572;38.086;2023-01-28T16:47:30;3.57;86.94
67364;HTU21D;54250;45.572;38.086;2023-01-28T16:49:56;3.60;86.93
67364;HTU21D;54250;45.572;38.086;2023-01-28T16:52:23;3.62;86.86
67364;HTU21D;54250;45.572;38.086;2023-01-28T16:54:49;3.63;86.85
67364;HTU21D;54250;45.572;38.086;2023-01-28T16:57:19;3.69;86.71
67364;HTU21D;54250;45.572;38.086;2023-01-28T16:59:46;3.70;86.65
67364;HTU21D;54250;45.572;38.086;2023-01-28T17:02:15;3.73;86.66
67364;HTU21D;54250;45.572;38.086;2023-01-28T17:04:42;3.76;86.54
67364;HTU21D;54250;45.572;38.086;2023-01-28T17:07:08;3.76;86.48
67364;HTU21D;54250;45.572;38.086;2023-01-28T17:09:34;3.77;86.57
67364;HTU21D;54250;45.572;38.086;2023-01-28T17:12:01;3.80;86.43
67364;HTU21D;54250;45.572;38.086;2023-01-28T17:14:27;3.79;86.45
67364;HTU21D;54250;45.572;38.086;2023-01-28T17:16:53;3.82;86.33
67364;HTU21D;54250;45.572;38.086;2023-01-28T17:19:19;3.82;86.21
67364;HTU21D;54250;45.572;38.086;2023-01-28T17:21:45;3.80;86.18
67364;HTU21D;54250;45.572;38.086;2023-01-28T17:24:11;3.83;86.16
67364;HTU21D;54250;45.572;38.086;2023-01-28T17:26:38;3.79;86.22
67364;HTU21D;54250;45.572;38.086;2023-01-28T17:29:05;3.78;86.16